sensor_id;sensor_type;location;lat;lon;timestamp;temperature;humidity
2855;DHT22;1435;49.472;10.940;2022-08-04T00:00:14;23.50;72.80
2855;DHT22;1435;49.472;10.940;2022-08-04T00:05:29;23.40;73.80
2855;DHT22;1435;49.472;10.940;2022-08-04T00:10:32;23.20;74.20
2855;DHT22;1435;49.472;10.940;2022-08-04T00:15:34;23.10;74.80
2855;DHT22;1435;49.472;10.940;2022-08-04T00:20:40;23.10;74.20
2855;DHT22;1435;49.472;10.940;2022-08-04T00:25:42;22.90;74.80
2855;DHT22;1435;49.472;10.940;2022-08-04T00:30:45;22.80;75.50
2855;DHT22;1435;49.472;10.940;2022-08-04T00:35:49;22.70;75.70
2855;DHT22;1435;49.472;10.940;2022-08-04T00:41:00;22.60;76.10
2855;DHT22;1435;49.472;10.940;2022-08-04T00:46:27;22.50;76.80
2855;DHT22;1435;49.472;10.940;2022-08-04T00:51:45;22.40;77.40
2855;DHT22;1435;49.472;10.940;2022-08-04T00:57:16;22.30;78.10
2855;DHT22;1435;49.472;10.940;2022-08-04T01:02:28;22.20;78.30
2855;DHT22;1435;49.472;10.940;2022-08-04T01:08:04;22.10;79.00
2855;DHT22;1435;49.472;10.940;2022-08-04T01:13:29;22.10;79.10
2855;DHT22;1435;49.472;10.940;2022-08-04T01:18:42;22.00;79.80
2855;DHT22;1435;49.472;10.940;2022-08-04T01:24:04;21.90;80.50
2855;DHT22;1435;49.472;10.940;2022-08-04T01:29:15;21.80;80.40
2855;DHT22;1435;49.472;10.940;2022-08-04T01:34:19;21.70;80.40
2855;DHT22;1435;49.472;10.940;2022-08-04T01:39:22;21.60;80.60
2855;DHT22;1435;49.472;10.940;2022-08-04T01:44:46;21.50;81.20
2855;DHT22;1435;49.472;10.940;2022-08-04T01:49:49;21.50;81.60
2855;DHT22;1435;49.472;10.940;2022-08-04T01:54:52;21.40;81.90
2855;DHT22;1435;49.472;10.940;2022-08-04T01:59:58;21.40;82.20
2855;DHT22;1435;49.472;10.940;2022-08-04T02:05:00;21.30;83.00
2855;DHT22;1435;49.472;10.940;2022-08-04T02:10:05;21.20;83.80
2855;DHT22;1435;49.472;10.940;2022-08-04T02:15:14;21.20;84.20
2855;DHT22;1435;49.472;10.940;2022-08-04T02:20:22;21.10;84.90
2855;DHT22;1435;49.472;10.940;2022-08-04T02:25:26;21.00;84.80
2855;DHT22;1435;49.472;10.940;2022-08-04T02:30:39;21.00;85.20
2855;DHT22;1435;49.472;10.940;2022-08-04T02:35:43;20.90;85.80
2855;DHT22;1435;49.472;10.940;2022-08-04T02:40:46;20.80;85.90
2855;DHT22;1435;49.472;10.940;2022-08-04T02:45:50;20.80;86.90
2855;DHT22;1435;49.472;10.940;2022-08-04T02:50:57;20.70;87.20
2855;DHT22;1435;49.472;10.940;2022-08-04T02:56:00;20.60;87.70
2855;DHT22;1435;49.472;10.940;2022-08-04T03:01:04;20.60;88.30
2855;DHT22;1435;49.472;10.940;2022-08-04T03:06:27;20.50;88.20
2855;DHT22;1435;49.472;10.940;2022-08-04T03:12:04;20.40;88.60
2855;DHT22;1435;49.472;10.940;2022-08-04T03:17:40;20.30;89.20
2855;DHT22;1435;49.472;10.940;2022-08-04T03:23:13;20.30;90.00
2855;DHT22;1435;49.472;10.940;2022-08-04T03:28:40;20.20;90.50
2855;DHT22;1435;49.472;10.940;2022-08-04T03:34:02;20.10;90.90
2855;DHT22;1435;49.472;10.940;2022-08-04T03:45:28;20.10;91.10
2855;DHT22;1435;49.472;10.940;2022-08-04T04:08:20;19.90;92.70
2855;DHT22;1435;49.472;10.940;2022-08-04T04:13:55;19.80;93.20
2855;DHT22;1435;49.472;10.940;2022-08-04T04:19:22;19.80;93.30
2855;DHT22;1435;49.472;10.940;2022-08-04T04:24:50;19.70;93.80
2855;DHT22;1435;49.472;10.940;2022-08-04T04:30:02;19.70;94.00
2855;DHT22;1435;49.472;10.940;2022-08-04T04:35:14;19.70;94.50
2855;DHT22;1435;49.472;10.940;2022-08-04T04:40:31;19.70;95.00
2855;DHT22;1435;49.472;10.940;2022-08-04T04:45:40;19.70;95.90
2855;DHT22;1435;49.472;10.940;2022-08-04T04:50:52;19.70;96.10
2855;DHT22;1435;49.472;10.940;2022-08-04T04:56:02;19.80;96.70
2855;DHT22;1435;49.472;10.940;2022-08-04T05:01:28;19.80;97.20
2855;DHT22;1435;49.472;10.940;2022-08-04T05:06:53;19.90;97.70
2855;DHT22;1435;49.472;10.940;2022-08-04T05:12:22;19.90;98.50
2855;DHT22;1435;49.472;10.940;2022-08-04T05:17:31;20.00;99.10
2855;DHT22;1435;49.472;10.940;2022-08-04T05:22:38;20.00;99.70
2855;DHT22;1435;49.472;10.940;2022-08-04T05:27:48;20.00;99.90
2855;DHT22;1435;49.472;10.940;2022-08-04T05:32:55;20.10;99.30
2855;DHT22;1435;49.472;10.940;2022-08-04T05:37:59;20.10;99.20
2855;DHT22;1435;49.472;10.940;2022-08-04T05:43:04;20.30;99.00
2855;DHT22;1435;49.472;10.940;2022-08-04T05:48:07;20.40;98.60
2855;DHT22;1435;49.472;10.940;2022-08-04T05:53:10;20.60;98.30
2855;DHT22;1435;49.472;10.940;2022-08-04T05:58:15;20.80;98.30
2855;DHT22;1435;49.472;10.940;2022-08-04T06:03:18;21.00;98.10
2855;DHT22;1435;49.472;10.940;2022-08-04T06:08:21;21.20;97.60
2855;DHT22;1435;49.472;10.940;2022-08-04T06:13:29;21.40;97.00
2855;DHT22;1435;49.472;10.940;2022-08-04T06:18:32;21.60;96.30
2855;DHT22;1435;49.472;10.940;2022-08-04T06:23:38;21.80;96.10
2855;DHT22;1435;49.472;10.940;2022-08-04T06:28:45;21.90;95.80
2855;DHT22;1435;49.472;10.940;2022-08-04T06:33:48;22.10;95.60
2855;DHT22;1435;49.472;10.940;2022-08-04T06:38:52;22.30;95.30
2855;DHT22;1435;49.472;10.940;2022-08-04T06:43:59;22.50;95.00
2855;DHT22;1435;49.472;10.940;2022-08-04T06:49:01;22.70;94.70
2855;DHT22;1435;49.472;10.940;2022-08-04T06:54:05;22.90;94.00
2855;DHT22;1435;49.472;10.940;2022-08-04T06:59:10;23.10;93.40
2855;DHT22;1435;49.472;10.940;2022-08-04T07:04:12;23.30;93.00
2855;DHT22;1435;49.472;10.940;2022-08-04T07:09:14;23.60;92.50
2855;DHT22;1435;49.472;10.940;2022-08-04T07:14:18;23.70;91.80
2855;DHT22;1435;49.472;10.940;2022-08-04T07:19:20;23.80;91.20
2855;DHT22;1435;49.472;10.940;2022-08-04T07:24:28;24.00;90.60
2855;DHT22;1435;49.472;10.940;2022-08-04T07:29:32;24.20;89.90
2855;DHT22;1435;49.472;10.940;2022-08-04T07:34:37;24.40;88.20
2855;DHT22;1435;49.472;10.940;2022-08-04T07:39:38;24.60;87.80
2855;DHT22;1435;49.472;10.940;2022-08-04T07:44:44;24.70;86.60
2855;DHT22;1435;49.472;10.940;2022-08-04T07:49:46;25.00;85.30
2855;DHT22;1435;49.472;10.940;2022-08-04T07:54:48;25.30;84.40
2855;DHT22;1435;49.472;10.940;2022-08-04T07:59:52;25.60;81.90
2855;DHT22;1435;49.472;10.940;2022-08-04T08:04:54;25.80;81.00
2855;DHT22;1435;49.472;10.940;2022-08-04T08:09:56;26.00;80.20
2855;DHT22;1435;49.472;10.940;2022-08-04T08:14:59;26.20;78.90
2855;DHT22;1435;49.472;10.940;2022-08-04T08:20:01;26.40;77.90
2855;DHT22;1435;49.472;10.940;2022-08-04T08:25:04;26.70;76.30
2855;DHT22;1435;49.472;10.940;2022-08-04T08:30:09;26.80;74.60
2855;DHT22;1435;49.472;10.940;2022-08-04T08:35:11;26.90;74.90
2855;DHT22;1435;49.472;10.940;2022-08-04T08:40:23;27.10;72.80
2855;DHT22;1435;49.472;10.940;2022-08-04T08:51:22;27.50;72.20
2855;DHT22;1435;49.472;10.940;2022-08-04T08:56:37;27.70;71.00
2855;DHT22;1435;49.472;10.940;2022-08-04T09:01:48;27.80;68.40
2855;DHT22;1435;49.472;10.940;2022-08-04T09:07:05;28.10;68.10
2855;DHT22;1435;49.472;10.940;2022-08-04T09:12:14;28.30;66.70
2855;DHT22;1435;49.472;10.940;2022-08-04T09:17:25;28.50;66.00
2855;DHT22;1435;49.472;10.940;2022-08-04T09:22:33;28.60;64.90
2855;DHT22;1435;49.472;10.940;2022-08-04T09:27:42;28.60;63.00
2855;DHT22;1435;49.472;10.940;2022-08-04T09:32:56;28.80;62.60
2855;DHT22;1435;49.472;10.940;2022-08-04T09:38:04;28.90;61.30
2855;DHT22;1435;49.472;10.940;2022-08-04T09:43:19;29.10;60.50
2855;DHT22;1435;49.472;10.940;2022-08-04T09:48:33;29.20;59.70
2855;DHT22;1435;49.472;10.940;2022-08-04T09:53:45;29.30;59.00
2855;DHT22;1435;49.472;10.940;2022-08-04T09:58:55;29.40;58.00
2855;DHT22;1435;49.472;10.940;2022-08-04T10:04:02;29.50;58.40
2855;DHT22;1435;49.472;10.940;2022-08-04T10:09:15;29.70;57.40
2855;DHT22;1435;49.472;10.940;2022-08-04T10:14:30;29.80;56.60
2855;DHT22;1435;49.472;10.940;2022-08-04T10:19:37;29.90;56.70
2855;DHT22;1435;49.472;10.940;2022-08-04T10:24:51;30.00;57.10
2855;DHT22;1435;49.472;10.940;2022-08-04T10:29:57;30.10;55.50
2855;DHT22;1435;49.472;10.940;2022-08-04T10:35:08;30.20;54.80
2855;DHT22;1435;49.472;10.940;2022-08-04T10:40:15;30.30;55.00
2855;DHT22;1435;49.472;10.940;2022-08-04T10:45:38;30.40;54.90
2855;DHT22;1435;49.472;10.940;2022-08-04T10:50:53;30.50;55.00
2855;DHT22;1435;49.472;10.940;2022-08-04T10:56:03;30.60;53.50
2855;DHT22;1435;49.472;10.940;2022-08-04T11:01:12;30.60;53.60
2855;DHT22;1435;49.472;10.940;2022-08-04T11:06:17;30.80;52.90
2855;DHT22;1435;49.472;10.940;2022-08-04T11:11:25;30.80;51.70
2855;DHT22;1435;49.472;10.940;2022-08-04T11:16:35;30.80;51.40
2855;DHT22;1435;49.472;10.940;2022-08-04T11:21:43;30.90;52.50
2855;DHT22;1435;49.472;10.940;2022-08-04T11:26:50;30.90;51.40
2855;DHT22;1435;49.472;10.940;2022-08-04T11:31:53;30.90;51.10
2855;DHT22;1435;49.472;10.940;2022-08-04T11:37:05;31.10;50.50
2855;DHT22;1435;49.472;10.940;2022-08-04T11:42:15;31.10;50.70
2855;DHT22;1435;49.472;10.940;2022-08-04T11:47:26;31.20;51.20
2855;DHT22;1435;49.472;10.940;2022-08-04T11:52:33;31.30;49.40
2855;DHT22;1435;49.472;10.940;2022-08-04T11:57:35;31.40;50.40
2855;DHT22;1435;49.472;10.940;2022-08-04T12:02:57;31.40;49.40
2855;DHT22;1435;49.472;10.940;2022-08-04T12:08:16;31.50;49.70
2855;DHT22;1435;49.472;10.940;2022-08-04T12:13:27;31.70;50.10
2855;DHT22;1435;49.472;10.940;2022-08-04T12:18:35;31.70;50.60
2855;DHT22;1435;49.472;10.940;2022-08-04T12:23:42;31.80;49.70
2855;DHT22;1435;49.472;10.940;2022-08-04T12:28:47;32.00;50.50
2855;DHT22;1435;49.472;10.940;2022-08-04T12:33:53;32.00;49.50
2855;DHT22;1435;49.472;10.940;2022-08-04T12:39:02;32.20;49.90
2855;DHT22;1435;49.472;10.940;2022-08-04T12:44:09;32.20;48.80
2855;DHT22;1435;49.472;10.940;2022-08-04T12:49:14;32.20;49.70
2855;DHT22;1435;49.472;10.940;2022-08-04T12:54:23;32.30;50.10
2855;DHT22;1435;49.472;10.940;2022-08-04T12:59:26;32.40;50.40
2855;DHT22;1435;49.472;10.940;2022-08-04T13:04:28;32.50;49.60
2855;DHT22;1435;49.472;10.940;2022-08-04T13:09:33;32.70;50.30
2855;DHT22;1435;49.472;10.940;2022-08-04T13:14:40;32.60;47.90
2855;DHT22;1435;49.472;10.940;2022-08-04T13:19:46;32.60;48.10
2855;DHT22;1435;49.472;10.940;2022-08-04T13:24:51;32.70;49.60
2855;DHT22;1435;49.472;10.940;2022-08-04T13:29:55;32.70;47.90
2855;DHT22;1435;49.472;10.940;2022-08-04T13:34:59;32.70;47.80
2855;DHT22;1435;49.472;10.940;2022-08-04T13:40:06;32.90;49.00
2855;DHT22;1435;49.472;10.940;2022-08-04T13:45:11;33.10;47.60
2855;DHT22;1435;49.472;10.940;2022-08-04T13:50:16;33.40;48.10
2855;DHT22;1435;49.472;10.940;2022-08-04T13:55:25;33.50;46.50
2855;DHT22;1435;49.472;10.940;2022-08-04T14:00:39;33.60;47.30
2855;DHT22;1435;49.472;10.940;2022-08-04T14:05:42;33.60;46.60
2855;DHT22;1435;49.472;10.940;2022-08-04T14:10:55;33.70;45.80
2855;DHT22;1435;49.472;10.940;2022-08-04T14:15:57;33.70;46.10
2855;DHT22;1435;49.472;10.940;2022-08-04T14:21:06;33.80;46.40
2855;DHT22;1435;49.472;10.940;2022-08-04T14:26:18;33.90;46.80
2855;DHT22;1435;49.472;10.940;2022-08-04T14:31:22;34.00;46.00
2855;DHT22;1435;49.472;10.940;2022-08-04T14:36:24;34.10;45.80
2855;DHT22;1435;49.472;10.940;2022-08-04T14:41:29;34.30;46.30
2855;DHT22;1435;49.472;10.940;2022-08-04T14:46:32;34.50;44.30
2855;DHT22;1435;49.472;10.940;2022-08-04T14:51:36;34.60;42.40
2855;DHT22;1435;49.472;10.940;2022-08-04T14:56:50;34.60;42.10
2855;DHT22;1435;49.472;10.940;2022-08-04T15:01:54;34.60;42.20
2855;DHT22;1435;49.472;10.940;2022-08-04T15:06:56;34.70;43.30
2855;DHT22;1435;49.472;10.940;2022-08-04T15:11:59;34.80;42.20
2855;DHT22;1435;49.472;10.940;2022-08-04T15:17:02;34.80;42.40
2855;DHT22;1435;49.472;10.940;2022-08-04T15:22:04;34.90;43.00
2855;DHT22;1435;49.472;10.940;2022-08-04T15:27:08;35.00;43.60
2855;DHT22;1435;49.472;10.940;2022-08-04T15:32:13;35.00;42.20
2855;DHT22;1435;49.472;10.940;2022-08-04T15:37:25;35.00;43.00
2855;DHT22;1435;49.472;10.940;2022-08-04T15:42:34;35.10;41.10
2855;DHT22;1435;49.472;10.940;2022-08-04T15:47:37;35.20;41.80
2855;DHT22;1435;49.472;10.940;2022-08-04T15:53:03;35.20;41.90
2855;DHT22;1435;49.472;10.940;2022-08-04T15:58:07;35.30;41.40
2855;DHT22;1435;49.472;10.940;2022-08-04T16:03:41;35.40;41.80
2855;DHT22;1435;49.472;10.940;2022-08-04T16:08:57;35.50;41.90
2855;DHT22;1435;49.472;10.940;2022-08-04T16:14:08;35.50;42.20
2855;DHT22;1435;49.472;10.940;2022-08-04T16:19:19;35.50;40.70
2855;DHT22;1435;49.472;10.940;2022-08-04T16:24:28;35.60;40.70
2855;DHT22;1435;49.472;10.940;2022-08-04T16:29:35;35.80;41.60
2855;DHT22;1435;49.472;10.940;2022-08-04T16:34:40;36.50;40.80
2855;DHT22;1435;49.472;10.940;2022-08-04T16:39:43;37.50;40.00
2855;DHT22;1435;49.472;10.940;2022-08-04T16:44:57;37.80;38.90
2855;DHT22;1435;49.472;10.940;2022-08-04T16:50:02;37.80;38.50
2855;DHT22;1435;49.472;10.940;2022-08-04T16:55:04;37.60;39.00
2855;DHT22;1435;49.472;10.940;2022-08-04T17:00:07;37.30;40.00
2855;DHT22;1435;49.472;10.940;2022-08-04T17:05:19;37.10;40.60
2855;DHT22;1435;49.472;10.940;2022-08-04T17:10:31;36.80;39.70
2855;DHT22;1435;49.472;10.940;2022-08-04T17:15:33;37.00;39.80
2855;DHT22;1435;49.472;10.940;2022-08-04T17:20:40;36.50;41.20
2855;DHT22;1435;49.472;10.940;2022-08-04T17:25:50;36.20;40.50
2855;DHT22;1435;49.472;10.940;2022-08-04T17:30:53;36.20;40.20
2855;DHT22;1435;49.472;10.940;2022-08-04T17:35:58;35.90;41.00
2855;DHT22;1435;49.472;10.940;2022-08-04T17:41:01;35.90;42.70
2855;DHT22;1435;49.472;10.940;2022-08-04T17:46:24;35.90;43.40
2855;DHT22;1435;49.472;10.940;2022-08-04T17:51:40;35.70;45.70
2855;DHT22;1435;49.472;10.940;2022-08-04T17:56:43;35.50;45.60
2855;DHT22;1435;49.472;10.940;2022-08-04T18:01:50;35.30;45.90
2855;DHT22;1435;49.472;10.940;2022-08-04T18:06:55;35.10;46.80
2855;DHT22;1435;49.472;10.940;2022-08-04T18:11:59;34.80;47.00
2855;DHT22;1435;49.472;10.940;2022-08-04T18:17:01;34.60;47.20
2855;DHT22;1435;49.472;10.940;2022-08-04T18:22:05;34.30;47.90
2855;DHT22;1435;49.472;10.940;2022-08-04T18:27:07;34.00;47.80
2855;DHT22;1435;49.472;10.940;2022-08-04T18:32:09;33.80;48.80
2855;DHT22;1435;49.472;10.940;2022-08-04T18:37:12;33.60;49.20
2855;DHT22;1435;49.472;10.940;2022-08-04T18:42:14;33.40;49.40
2855;DHT22;1435;49.472;10.940;2022-08-04T18:47:15;33.00;49.60
2855;DHT22;1435;49.472;10.940;2022-08-04T18:52:19;32.90;49.50
2855;DHT22;1435;49.472;10.940;2022-08-04T18:57:22;32.60;49.80
2855;DHT22;1435;49.472;10.940;2022-08-04T19:02:24;32.40;49.90
2855;DHT22;1435;49.472;10.940;2022-08-04T19:07:27;32.10;50.00
2855;DHT22;1435;49.472;10.940;2022-08-04T19:12:29;31.90;50.50
2855;DHT22;1435;49.472;10.940;2022-08-04T19:17:31;31.70;50.50
2855;DHT22;1435;49.472;10.940;2022-08-04T19:22:34;31.50;50.90
2855;DHT22;1435;49.472;10.940;2022-08-04T19:27:36;31.30;51.40
2855;DHT22;1435;49.472;10.940;2022-08-04T19:32:37;31.10;51.60
2855;DHT22;1435;49.472;10.940;2022-08-04T19:37:40;31.00;51.90
2855;DHT22;1435;49.472;10.940;2022-08-04T19:42:42;30.80;52.70
2855;DHT22;1435;49.472;10.940;2022-08-04T19:47:44;30.60;52.80
2855;DHT22;1435;49.472;10.940;2022-08-04T19:52:48;30.40;52.80
2855;DHT22;1435;49.472;10.940;2022-08-04T19:57:50;30.30;53.00
2855;DHT22;1435;49.472;10.940;2022-08-04T20:02:52;30.20;53.80
2855;DHT22;1435;49.472;10.940;2022-08-04T20:07:55;30.00;53.90
2855;DHT22;1435;49.472;10.940;2022-08-04T20:12:57;29.80;54.50
2855;DHT22;1435;49.472;10.940;2022-08-04T20:17:59;29.70;54.60
2855;DHT22;1435;49.472;10.940;2022-08-04T20:23:02;29.50;55.50
2855;DHT22;1435;49.472;10.940;2022-08-04T20:28:04;29.40;55.50
2855;DHT22;1435;49.472;10.940;2022-08-04T20:33:06;29.30;55.90
2855;DHT22;1435;49.472;10.940;2022-08-04T20:38:09;29.20;56.20
2855;DHT22;1435;49.472;10.940;2022-08-04T20:43:10;29.10;56.40
2855;DHT22;1435;49.472;10.940;2022-08-04T20:48:12;29.00;56.50
2855;DHT22;1435;49.472;10.940;2022-08-04T20:53:15;28.80;56.80
2855;DHT22;1435;49.472;10.940;2022-08-04T20:58:17;28.70;56.70
2855;DHT22;1435;49.472;10.940;2022-08-04T21:03:18;28.60;55.90
2855;DHT22;1435;49.472;10.940;2022-08-04T21:08:21;28.50;55.70
2855;DHT22;1435;49.472;10.940;2022-08-04T21:13:23;28.40;54.80
2855;DHT22;1435;49.472;10.940;2022-08-04T21:18:25;28.40;55.00
2855;DHT22;1435;49.472;10.940;2022-08-04T21:23:28;28.30;54.80
2855;DHT22;1435;49.472;10.940;2022-08-04T21:28:29;28.30;54.50
2855;DHT22;1435;49.472;10.940;2022-08-04T21:33:31;28.30;54.90
2855;DHT22;1435;49.472;10.940;2022-08-04T21:38:34;28.30;54.70
2855;DHT22;1435;49.472;10.940;2022-08-04T21:43:36;28.40;55.60
2855;DHT22;1435;49.472;10.940;2022-08-04T21:48:38;28.40;55.90
2855;DHT22;1435;49.472;10.940;2022-08-04T21:53:41;28.40;55.80
2855;DHT22;1435;49.472;10.940;2022-08-04T21:58:43;28.40;55.90
2855;DHT22;1435;49.472;10.940;2022-08-04T22:03:46;28.40;56.10
2855;DHT22;1435;49.472;10.940;2022-08-04T22:08:50;28.30;56.20
2855;DHT22;1435;49.472;10.940;2022-08-04T22:13:52;28.20;56.50
2855;DHT22;1435;49.472;10.940;2022-08-04T22:18:55;28.10;56.70
2855;DHT22;1435;49.472;10.940;2022-08-04T22:23:58;28.10;56.80
2855;DHT22;1435;49.472;10.940;2022-08-04T22:29:00;28.00;57.10
2855;DHT22;1435;49.472;10.940;2022-08-04T22:34:01;27.90;57.00
2855;DHT22;1435;49.472;10.940;2022-08-04T22:39:04;27.90;57.20
2855;DHT22;1435;49.472;10.940;2022-08-04T22:44:07;27.80;57.40
2855;DHT22;1435;49.472;10.940;2022-08-04T22:49:09;27.80;57.70
2855;DHT22;1435;49.472;10.940;2022-08-04T22:54:12;27.70;57.70
2855;DHT22;1435;49.472;10.940;2022-08-04T22:59:14;27.70;57.90
2855;DHT22;1435;49.472;10.940;2022-08-04T23:04:15;27.60;58.20
2855;DHT22;1435;49.472;10.940;2022-08-04T23:09:18;27.50;58.50
2855;DHT22;1435;49.472;10.940;2022-08-04T23:14:20;27.40;58.70
2855;DHT22;1435;49.472;10.940;2022-08-04T23:19:22;27.40;59.00
2855;DHT22;1435;49.472;10.940;2022-08-04T23:24:25;27.30;59.00
2855;DHT22;1435;49.472;10.940;2022-08-04T23:29:27;27.30;59.20
2855;DHT22;1435;49.472;10.940;2022-08-04T23:34:29;27.20;59.40
2855;DHT22;1435;49.472;10.940;2022-08-04T23:39:32;27.20;59.60
2855;DHT22;1435;49.472;10.940;2022-08-04T23:44:33;27.10;59.70
2855;DHT22;1435;49.472;10.940;2022-08-04T23:49:35;27.10;60.00
2855;DHT22;1435;49.472;10.940;2022-08-04T23:54:38;27.00;60.30
2855;DHT22;1435;49.472;10.940;2022-08-04T23:59:40;27.00;60.90
